sensor_id;sensor_type;location;lat;lon;timestamp;P1;durP1;ratioP1;P2;durP2;ratioP2
9559;SDS011;4818;50.860;4.648;2023-10-08T00:01:49;2.95;;;0.95;;
9559;SDS011;4818;50.860;4.648;2023-10-08T00:04:16;4.72;;;1.00;;
9559;SDS011;4818;50.860;4.648;2023-10-08T00:06:45;6.07;;;1.08;;
9559;SDS011;4818;50.860;4.648;2023-10-08T00:09:12;4.72;;;0.80;;
9559;SDS011;4818;50.860;4.648;2023-10-08T00:11:41;4.13;;;0.88;;
9559;SDS011;4818;50.860;4.648;2023-10-08T00:14:08;4.10;;;0.98;;
9559;SDS011;4818;50.860;4.648;2023-10-08T00:16:35;3.33;;;1.05;;
9559;SDS011;4818;50.860;4.648;2023-10-08T00:19:04;2.95;;;1.35;;
9559;SDS011;4818;50.860;4.648;2023-10-08T00:21:34;6.72;;;0.80;;
9559;SDS011;4818;50.860;4.648;2023-10-08T00:24:03;2.28;;;0.98;;
9559;SDS011;4818;50.860;4.648;2023-10-08T00:26:34;8.48;;;1.63;;
9559;SDS011;4818;50.860;4.648;2023-10-08T00:29:05;7.28;;;1.05;;
9559;SDS011;4818;50.860;4.648;2023-10-08T00:31:40;2.63;;;0.70;;
9559;SDS011;4818;50.860;4.648;2023-10-08T00:34:07;4.82;;;0.88;;
9559;SDS011;4818;50.860;4.648;2023-10-08T00:36:42;3.85;;;1.08;;
9559;SDS011;4818;50.860;4.648;2023-10-08T00:39:09;3.78;;;1.17;;
9559;SDS011;4818;50.860;4.648;2023-10-08T00:41:39;3.13;;;0.60;;
9559;SDS011;4818;50.860;4.648;2023-10-08T00:44:08;2.60;;;0.60;;
9559;SDS011;4818;50.860;4.648;2023-10-08T00:46:37;3.90;;;0.82;;
9559;SDS011;4818;50.860;4.648;2023-10-08T00:49:08;6.97;;;1.45;;
9559;SDS011;4818;50.860;4.648;2023-10-08T00:51:57;3.78;;;1.02;;
9559;SDS011;4818;50.860;4.648;2023-10-08T00:54:31;4.60;;;1.13;;
9559;SDS011;4818;50.860;4.648;2023-10-08T00:57:14;4.93;;;1.08;;
9559;SDS011;4818;50.860;4.648;2023-10-08T00:59:45;5.63;;;0.95;;
9559;SDS011;4818;50.860;4.648;2023-10-08T01:02:19;2.50;;;0.93;;
9559;SDS011;4818;50.860;4.648;2023-10-08T01:04:49;3.85;;;1.00;;
9559;SDS011;4818;50.860;4.648;2023-10-08T01:07:16;3.60;;;0.80;;
9559;SDS011;4818;50.860;4.648;2023-10-08T01:09:43;4.35;;;1.10;;
9559;SDS011;4818;50.860;4.648;2023-10-08T01:12:16;2.72;;;0.70;;
9559;SDS011;4818;50.860;4.648;2023-10-08T01:14:55;5.07;;;0.95;;
9559;SDS011;4818;50.860;4.648;2023-10-08T01:17:32;3.00;;;0.93;;
9559;SDS011;4818;50.860;4.648;2023-10-08T01:20:10;6.10;;;0.93;;
9559;SDS011;4818;50.860;4.648;2023-10-08T01:22:57;3.33;;;0.90;;
9559;SDS011;4818;50.860;4.648;2023-10-08T01:25:23;3.40;;;1.30;;
9559;SDS011;4818;50.860;4.648;2023-10-08T01:27:57;4.05;;;1.20;;
9559;SDS011;4818;50.860;4.648;2023-10-08T01:30:26;3.08;;;1.35;;
9559;SDS011;4818;50.860;4.648;2023-10-08T01:32:59;3.28;;;0.95;;
9559;SDS011;4818;50.860;4.648;2023-10-08T01:35:27;3.10;;;1.25;;
9559;SDS011;4818;50.860;4.648;2023-10-08T01:37:56;7.33;;;1.27;;
9559;SDS011;4818;50.860;4.648;2023-10-08T01:40:25;3.47;;;1.38;;
9559;SDS011;4818;50.860;4.648;2023-10-08T01:42:51;7.68;;;1.63;;
9559;SDS011;4818;50.860;4.648;2023-10-08T01:45:18;4.80;;;1.05;;
9559;SDS011;4818;50.860;4.648;2023-10-08T01:47:45;2.72;;;1.13;;
9559;SDS011;4818;50.860;4.648;2023-10-08T01:50:16;3.97;;;1.25;;
9559;SDS011;4818;50.860;4.648;2023-10-08T01:52:54;5.53;;;0.95;;
9559;SDS011;4818;50.860;4.648;2023-10-08T01:55:20;3.65;;;1.02;;
9559;SDS011;4818;50.860;4.648;2023-10-08T01:57:48;2.97;;;1.15;;
9559;SDS011;4818;50.860;4.648;2023-10-08T02:00:16;4.63;;;1.13;;
9559;SDS011;4818;50.860;4.648;2023-10-08T02:02:47;3.42;;;1.00;;
9559;SDS011;4818;50.860;4.648;2023-10-08T02:05:15;7.47;;;1.38;;
9559;SDS011;4818;50.860;4.648;2023-10-08T02:07:44;3.30;;;1.40;;
9559;SDS011;4818;50.860;4.648;2023-10-08T02:10:10;5.32;;;1.17;;
9559;SDS011;4818;50.860;4.648;2023-10-08T02:12:39;5.38;;;1.77;;
9559;SDS011;4818;50.860;4.648;2023-10-08T02:15:06;3.47;;;1.20;;
9559;SDS011;4818;50.860;4.648;2023-10-08T02:17:33;4.53;;;1.83;;
9559;SDS011;4818;50.860;4.648;2023-10-08T02:20:00;5.90;;;1.45;;
9559;SDS011;4818;50.860;4.648;2023-10-08T02:22:30;3.85;;;0.63;;
9559;SDS011;4818;50.860;4.648;2023-10-08T02:24:58;4.28;;;1.00;;
9559;SDS011;4818;50.860;4.648;2023-10-08T02:27:29;2.75;;;0.77;;
9559;SDS011;4818;50.860;4.648;2023-10-08T02:29:58;5.80;;;1.40;;
9559;SDS011;4818;50.860;4.648;2023-10-08T02:32:25;2.47;;;0.90;;
9559;SDS011;4818;50.860;4.648;2023-10-08T02:34:51;5.07;;;2.03;;
9559;SDS011;4818;50.860;4.648;2023-10-08T02:37:17;5.55;;;1.33;;
9559;SDS011;4818;50.860;4.648;2023-10-08T02:42:13;6.03;;;1.23;;
9559;SDS011;4818;50.860;4.648;2023-10-08T02:44:40;2.08;;;0.80;;
9559;SDS011;4818;50.860;4.648;2023-10-08T02:47:09;5.82;;;1.02;;
9559;SDS011;4818;50.860;4.648;2023-10-08T02:49:41;5.03;;;1.27;;
9559;SDS011;4818;50.860;4.648;2023-10-08T02:52:08;4.00;;;0.95;;
9559;SDS011;4818;50.860;4.648;2023-10-08T02:54:34;4.22;;;1.17;;
9559;SDS011;4818;50.860;4.648;2023-10-08T02:57:03;3.13;;;1.00;;
9559;SDS011;4818;50.860;4.648;2023-10-08T02:59:33;6.78;;;1.08;;
9559;SDS011;4818;50.860;4.648;2023-10-08T03:02:09;3.25;;;1.17;;
9559;SDS011;4818;50.860;4.648;2023-10-08T03:04:43;5.90;;;1.58;;
9559;SDS011;4818;50.860;4.648;2023-10-08T03:07:16;2.85;;;0.70;;
9559;SDS011;4818;50.860;4.648;2023-10-08T03:09:57;3.80;;;0.80;;
9559;SDS011;4818;50.860;4.648;2023-10-08T03:12:42;4.07;;;0.88;;
9559;SDS011;4818;50.860;4.648;2023-10-08T03:15:08;4.10;;;1.10;;
9559;SDS011;4818;50.860;4.648;2023-10-08T03:17:53;3.38;;;0.98;;
9559;SDS011;4818;50.860;4.648;2023-10-08T03:20:22;4.00;;;1.40;;
9559;SDS011;4818;50.860;4.648;2023-10-08T03:23:17;4.82;;;1.13;;
9559;SDS011;4818;50.860;4.648;2023-10-08T03:25:50;5.22;;;1.33;;
9559;SDS011;4818;50.860;4.648;2023-10-08T03:28:21;4.28;;;1.50;;
9559;SDS011;4818;50.860;4.648;2023-10-08T03:30:50;4.60;;;1.42;;
9559;SDS011;4818;50.860;4.648;2023-10-08T03:33:17;5.57;;;1.70;;
9559;SDS011;4818;50.860;4.648;2023-10-08T03:35:52;4.72;;;1.35;;
9559;SDS011;4818;50.860;4.648;2023-10-08T03:38:20;3.20;;;1.00;;
9559;SDS011;4818;50.860;4.648;2023-10-08T03:41:09;3.78;;;1.17;;
9559;SDS011;4818;50.860;4.648;2023-10-08T03:43:41;3.75;;;1.15;;
9559;SDS011;4818;50.860;4.648;2023-10-08T03:46:30;6.32;;;1.67;;
9559;SDS011;4818;50.860;4.648;2023-10-08T03:48:57;3.45;;;1.30;;
9559;SDS011;4818;50.860;4.648;2023-10-08T03:51:30;5.05;;;1.33;;
9559;SDS011;4818;50.860;4.648;2023-10-08T03:54:04;4.25;;;1.40;;
9559;SDS011;4818;50.860;4.648;2023-10-08T03:59:17;4.50;;;1.00;;
9559;SDS011;4818;50.860;4.648;2023-10-08T04:02:05;3.23;;;1.10;;
9559;SDS011;4818;50.860;4.648;2023-10-08T04:04:44;6.55;;;1.45;;
9559;SDS011;4818;50.860;4.648;2023-10-08T04:07:21;5.47;;;1.05;;
9559;SDS011;4818;50.860;4.648;2023-10-08T04:10:03;6.57;;;1.38;;
9559;SDS011;4818;50.860;4.648;2023-10-08T04:12:50;3.10;;;1.15;;
9559;SDS011;4818;50.860;4.648;2023-10-08T04:15:18;4.45;;;1.15;;
9559;SDS011;4818;50.860;4.648;2023-10-08T04:17:45;4.18;;;1.60;;
9559;SDS011;4818;50.860;4.648;2023-10-08T04:20:16;7.50;;;1.27;;
9559;SDS011;4818;50.860;4.648;2023-10-08T04:23:02;6.40;;;1.08;;
9559;SDS011;4818;50.860;4.648;2023-10-08T04:25:30;5.05;;;1.33;;
9559;SDS011;4818;50.860;4.648;2023-10-08T04:27:57;3.63;;;1.45;;
9559;SDS011;4818;50.860;4.648;2023-10-08T04:30:42;4.25;;;1.45;;
9559;SDS011;4818;50.860;4.648;2023-10-08T04:33:12;6.88;;;1.23;;
9559;SDS011;4818;50.860;4.648;2023-10-08T04:35:43;5.95;;;1.55;;
9559;SDS011;4818;50.860;4.648;2023-10-08T04:38:20;2.85;;;0.95;;
9559;SDS011;4818;50.860;4.648;2023-10-08T04:40:51;6.07;;;1.30;;
9559;SDS011;4818;50.860;4.648;2023-10-08T04:43:21;4.15;;;1.20;;
9559;SDS011;4818;50.860;4.648;2023-10-08T04:45:59;4.25;;;1.10;;
9559;SDS011;4818;50.860;4.648;2023-10-08T04:48:30;6.80;;;1.23;;
9559;SDS011;4818;50.860;4.648;2023-10-08T04:51:02;7.03;;;1.40;;
9559;SDS011;4818;50.860;4.648;2023-10-08T04:53:32;5.18;;;1.40;;
9559;SDS011;4818;50.860;4.648;2023-10-08T04:56:05;3.42;;;0.90;;
9559;SDS011;4818;50.860;4.648;2023-10-08T04:58:32;2.97;;;1.13;;
9559;SDS011;4818;50.860;4.648;2023-10-08T05:01:01;4.47;;;1.60;;
9559;SDS011;4818;50.860;4.648;2023-10-08T05:03:49;5.25;;;1.27;;
9559;SDS011;4818;50.860;4.648;2023-10-08T05:06:31;3.35;;;0.98;;
9559;SDS011;4818;50.860;4.648;2023-10-08T05:09:04;2.30;;;1.13;;
9559;SDS011;4818;50.860;4.648;2023-10-08T05:11:38;4.15;;;1.52;;
9559;SDS011;4818;50.860;4.648;2023-10-08T05:14:22;4.22;;;1.42;;
9559;SDS011;4818;50.860;4.648;2023-10-08T05:16:58;6.13;;;1.55;;
9559;SDS011;4818;50.860;4.648;2023-10-08T05:19:43;5.00;;;1.38;;
9559;SDS011;4818;50.860;4.648;2023-10-08T05:22:41;6.43;;;0.98;;
9559;SDS011;4818;50.860;4.648;2023-10-08T05:25:09;4.70;;;1.55;;
9559;SDS011;4818;50.860;4.648;2023-10-08T05:27:45;3.85;;;1.30;;
9559;SDS011;4818;50.860;4.648;2023-10-08T05:30:18;9.50;;;2.17;;
9559;SDS011;4818;50.860;4.648;2023-10-08T05:32:47;7.22;;;1.40;;
9559;SDS011;4818;50.860;4.648;2023-10-08T05:35:31;7.45;;;1.35;;
9559;SDS011;4818;50.860;4.648;2023-10-08T05:38:06;4.78;;;1.23;;
9559;SDS011;4818;50.860;4.648;2023-10-08T05:40:47;3.50;;;1.33;;
9559;SDS011;4818;50.860;4.648;2023-10-08T05:43:28;7.63;;;1.65;;
9559;SDS011;4818;50.860;4.648;2023-10-08T05:46:07;4.28;;;1.25;;
9559;SDS011;4818;50.860;4.648;2023-10-08T05:51:33;6.40;;;1.88;;
9559;SDS011;4818;50.860;4.648;2023-10-08T05:54:15;3.05;;;0.90;;
9559;SDS011;4818;50.860;4.648;2023-10-08T05:57:07;4.32;;;1.85;;
9559;SDS011;4818;50.860;4.648;2023-10-08T05:59:43;5.68;;;2.28;;
9559;SDS011;4818;50.860;4.648;2023-10-08T06:02:28;3.90;;;1.20;;
9559;SDS011;4818;50.860;4.648;2023-10-08T06:04:58;4.93;;;1.40;;
9559;SDS011;4818;50.860;4.648;2023-10-08T06:07:50;4.75;;;1.42;;
9559;SDS011;4818;50.860;4.648;2023-10-08T06:10:20;4.35;;;1.38;;
9559;SDS011;4818;50.860;4.648;2023-10-08T06:12:55;4.10;;;1.70;;
9559;SDS011;4818;50.860;4.648;2023-10-08T06:18:20;5.20;;;1.65;;
9559;SDS011;4818;50.860;4.648;2023-10-08T06:20:51;6.28;;;1.70;;
9559;SDS011;4818;50.860;4.648;2023-10-08T06:23:21;4.75;;;0.95;;
9559;SDS011;4818;50.860;4.648;2023-10-08T06:25:49;4.15;;;1.27;;
9559;SDS011;4818;50.860;4.648;2023-10-08T06:28:42;5.13;;;1.50;;
9559;SDS011;4818;50.860;4.648;2023-10-08T06:31:09;4.22;;;1.50;;
9559;SDS011;4818;50.860;4.648;2023-10-08T06:33:42;5.28;;;1.48;;
9559;SDS011;4818;50.860;4.648;2023-10-08T06:36:08;3.55;;;1.40;;
9559;SDS011;4818;50.860;4.648;2023-10-08T06:38:45;4.53;;;1.33;;
9559;SDS011;4818;50.860;4.648;2023-10-08T06:41:15;2.95;;;1.15;;
9559;SDS011;4818;50.860;4.648;2023-10-08T06:43:45;3.45;;;1.50;;
9559;SDS011;4818;50.860;4.648;2023-10-08T06:46:15;5.68;;;1.05;;
9559;SDS011;4818;50.860;4.648;2023-10-08T06:48:44;3.38;;;1.17;;
9559;SDS011;4818;50.860;4.648;2023-10-08T06:51:11;4.88;;;1.60;;
9559;SDS011;4818;50.860;4.648;2023-10-08T06:53:41;2.55;;;1.33;;
9559;SDS011;4818;50.860;4.648;2023-10-08T06:56:10;8.82;;;2.17;;
9559;SDS011;4818;50.860;4.648;2023-10-08T06:58:40;6.18;;;1.95;;
9559;SDS011;4818;50.860;4.648;2023-10-08T07:04:07;5.97;;;2.83;;
9559;SDS011;4818;50.860;4.648;2023-10-08T07:06:40;10.98;;;2.67;;
9559;SDS011;4818;50.860;4.648;2023-10-08T07:09:08;5.55;;;2.95;;
9559;SDS011;4818;50.860;4.648;2023-10-08T07:11:51;7.15;;;2.30;;
9559;SDS011;4818;50.860;4.648;2023-10-08T07:14:27;5.20;;;1.95;;
9559;SDS011;4818;50.860;4.648;2023-10-08T07:16:54;3.63;;;2.13;;
9559;SDS011;4818;50.860;4.648;2023-10-08T07:19:24;5.28;;;1.75;;
9559;SDS011;4818;50.860;4.648;2023-10-08T07:22:01;4.90;;;1.48;;
9559;SDS011;4818;50.860;4.648;2023-10-08T07:24:46;6.00;;;1.95;;
9559;SDS011;4818;50.860;4.648;2023-10-08T07:29:47;3.67;;;1.40;;
9559;SDS011;4818;50.860;4.648;2023-10-08T07:32:13;4.68;;;1.52;;
9559;SDS011;4818;50.860;4.648;2023-10-08T07:34:43;4.25;;;1.33;;
9559;SDS011;4818;50.860;4.648;2023-10-08T07:37:10;5.35;;;1.60;;
9559;SDS011;4818;50.860;4.648;2023-10-08T07:39:37;3.17;;;1.50;;
9559;SDS011;4818;50.860;4.648;2023-10-08T07:42:12;8.93;;;1.33;;
9559;SDS011;4818;50.860;4.648;2023-10-08T07:44:42;3.15;;;1.45;;
9559;SDS011;4818;50.860;4.648;2023-10-08T07:47:09;5.38;;;1.45;;
9559;SDS011;4818;50.860;4.648;2023-10-08T07:49:39;5.32;;;1.40;;
9559;SDS011;4818;50.860;4.648;2023-10-08T07:54:40;3.63;;;1.55;;
9559;SDS011;4818;50.860;4.648;2023-10-08T07:57:06;3.83;;;1.63;;
9559;SDS011;4818;50.860;4.648;2023-10-08T07:59:45;3.75;;;1.35;;
9559;SDS011;4818;50.860;4.648;2023-10-08T08:02:13;10.77;;;1.73;;
9559;SDS011;4818;50.860;4.648;2023-10-08T08:04:43;3.55;;;1.10;;
9559;SDS011;4818;50.860;4.648;2023-10-08T08:07:10;4.22;;;1.50;;
9559;SDS011;4818;50.860;4.648;2023-10-08T08:09:44;4.43;;;1.45;;
9559;SDS011;4818;50.860;4.648;2023-10-08T08:12:16;5.85;;;1.40;;
9559;SDS011;4818;50.860;4.648;2023-10-08T08:14:48;6.90;;;1.50;;
9559;SDS011;4818;50.860;4.648;2023-10-08T08:17:14;4.63;;;1.38;;
9559;SDS011;4818;50.860;4.648;2023-10-08T08:19:46;4.70;;;1.58;;
9559;SDS011;4818;50.860;4.648;2023-10-08T08:22:12;3.30;;;1.80;;
9559;SDS011;4818;50.860;4.648;2023-10-08T08:24:53;3.10;;;1.20;;
9559;SDS011;4818;50.860;4.648;2023-10-08T08:27:40;3.42;;;1.20;;
9559;SDS011;4818;50.860;4.648;2023-10-08T08:30:09;3.40;;;1.37;;
9559;SDS011;4818;50.860;4.648;2023-10-08T08:32:39;4.32;;;1.55;;
9559;SDS011;4818;50.860;4.648;2023-10-08T08:35:08;7.18;;;1.48;;
9559;SDS011;4818;50.860;4.648;2023-10-08T08:37:35;4.35;;;1.27;;
9559;SDS011;4818;50.860;4.648;2023-10-08T08:40:06;3.42;;;1.30;;
9559;SDS011;4818;50.860;4.648;2023-10-08T08:42:50;4.72;;;1.30;;
9559;SDS011;4818;50.860;4.648;2023-10-08T08:45:24;5.25;;;1.60;;
9559;SDS011;4818;50.860;4.648;2023-10-08T08:47:51;3.95;;;1.42;;
9559;SDS011;4818;50.860;4.648;2023-10-08T08:50:18;4.53;;;1.42;;
9559;SDS011;4818;50.860;4.648;2023-10-08T08:52:47;8.05;;;1.95;;
9559;SDS011;4818;50.860;4.648;2023-10-08T08:55:14;5.75;;;1.48;;
9559;SDS011;4818;50.860;4.648;2023-10-08T08:57:42;4.25;;;1.60;;
9559;SDS011;4818;50.860;4.648;2023-10-08T09:00:10;7.20;;;1.48;;
9559;SDS011;4818;50.860;4.648;2023-10-08T09:02:37;3.70;;;1.90;;
9559;SDS011;4818;50.860;4.648;2023-10-08T09:05:04;3.90;;;1.70;;
9559;SDS011;4818;50.860;4.648;2023-10-08T09:07:52;6.18;;;2.08;;
9559;SDS011;4818;50.860;4.648;2023-10-08T09:10:20;4.35;;;1.33;;
9559;SDS011;4818;50.860;4.648;2023-10-08T09:12:52;3.75;;;1.13;;
9559;SDS011;4818;50.860;4.648;2023-10-08T09:15:19;4.57;;;1.65;;
9559;SDS011;4818;50.860;4.648;2023-10-08T09:17:48;4.32;;;1.60;;
9559;SDS011;4818;50.860;4.648;2023-10-08T09:20:15;4.82;;;1.48;;
9559;SDS011;4818;50.860;4.648;2023-10-08T09:22:42;5.40;;;1.90;;
9559;SDS011;4818;50.860;4.648;2023-10-08T09:25:08;6.90;;;1.83;;
9559;SDS011;4818;50.860;4.648;2023-10-08T09:27:35;5.95;;;1.98;;
9559;SDS011;4818;50.860;4.648;2023-10-08T09:30:06;7.25;;;1.70;;
9559;SDS011;4818;50.860;4.648;2023-10-08T09:32:34;5.97;;;1.90;;
9559;SDS011;4818;50.860;4.648;2023-10-08T09:35:04;4.82;;;1.88;;
9559;SDS011;4818;50.860;4.648;2023-10-08T09:37:31;7.20;;;2.10;;
9559;SDS011;4818;50.860;4.648;2023-10-08T09:39:59;3.42;;;1.45;;
9559;SDS011;4818;50.860;4.648;2023-10-08T09:42:32;5.72;;;1.98;;
9559;SDS011;4818;50.860;4.648;2023-10-08T09:45:01;6.22;;;2.03;;
9559;SDS011;4818;50.860;4.648;2023-10-08T09:47:31;6.07;;;2.03;;
9559;SDS011;4818;50.860;4.648;2023-10-08T09:52:39;5.72;;;2.20;;
9559;SDS011;4818;50.860;4.648;2023-10-08T09:55:10;7.38;;;2.60;;
9559;SDS011;4818;50.860;4.648;2023-10-08T09:57:37;5.40;;;1.85;;
9559;SDS011;4818;50.860;4.648;2023-10-08T10:00:07;6.18;;;2.42;;
9559;SDS011;4818;50.860;4.648;2023-10-08T10:02:41;8.77;;;3.00;;
9559;SDS011;4818;50.860;4.648;2023-10-08T10:05:11;7.20;;;2.30;;
9559;SDS011;4818;50.860;4.648;2023-10-08T10:07:38;9.02;;;2.42;;
9559;SDS011;4818;50.860;4.648;2023-10-08T10:10:28;7.03;;;2.53;;
9559;SDS011;4818;50.860;4.648;2023-10-08T10:13:05;6.53;;;2.65;;
9559;SDS011;4818;50.860;4.648;2023-10-08T10:15:37;8.10;;;2.50;;
9559;SDS011;4818;50.860;4.648;2023-10-08T10:20:51;10.55;;;2.85;;
9559;SDS011;4818;50.860;4.648;2023-10-08T10:23:38;5.28;;;2.08;;
9559;SDS011;4818;50.860;4.648;2023-10-08T10:26:24;7.43;;;2.83;;
9559;SDS011;4818;50.860;4.648;2023-10-08T10:31:52;6.60;;;2.58;;
9559;SDS011;4818;50.860;4.648;2023-10-08T10:34:21;11.45;;;3.00;;
9559;SDS011;4818;50.860;4.648;2023-10-08T10:36:49;4.55;;;2.65;;
9559;SDS011;4818;50.860;4.648;2023-10-08T10:39:21;5.78;;;2.92;;
9559;SDS011;4818;50.860;4.648;2023-10-08T10:41:59;7.15;;;2.85;;
9559;SDS011;4818;50.860;4.648;2023-10-08T10:44:31;6.47;;;2.58;;
9559;SDS011;4818;50.860;4.648;2023-10-08T10:46:58;12.73;;;3.58;;
9559;SDS011;4818;50.860;4.648;2023-10-08T10:49:43;6.80;;;3.30;;
9559;SDS011;4818;50.860;4.648;2023-10-08T10:52:35;7.97;;;3.03;;
9559;SDS011;4818;50.860;4.648;2023-10-08T10:55:17;10.77;;;3.05;;
9559;SDS011;4818;50.860;4.648;2023-10-08T10:57:49;8.27;;;3.15;;
9559;SDS011;4818;50.860;4.648;2023-10-08T11:00:21;8.57;;;3.05;;
9559;SDS011;4818;50.860;4.648;2023-10-08T11:02:57;6.85;;;2.78;;
9559;SDS011;4818;50.860;4.648;2023-10-08T11:05:45;9.52;;;3.15;;
9559;SDS011;4818;50.860;4.648;2023-10-08T11:08:16;9.98;;;2.45;;
9559;SDS011;4818;50.860;4.648;2023-10-08T11:10:48;8.05;;;3.00;;
9559;SDS011;4818;50.860;4.648;2023-10-08T11:13:19;5.95;;;2.67;;
9559;SDS011;4818;50.860;4.648;2023-10-08T11:15:47;11.43;;;2.97;;
9559;SDS011;4818;50.860;4.648;2023-10-08T11:18:20;9.43;;;2.50;;
9559;SDS011;4818;50.860;4.648;2023-10-08T11:20:48;6.10;;;3.13;;
9559;SDS011;4818;50.860;4.648;2023-10-08T11:23:35;9.35;;;3.03;;
9559;SDS011;4818;50.860;4.648;2023-10-08T11:26:03;8.02;;;3.05;;
9559;SDS011;4818;50.860;4.648;2023-10-08T11:28:33;8.18;;;3.20;;
9559;SDS011;4818;50.860;4.648;2023-10-08T11:31:20;9.93;;;3.17;;
9559;SDS011;4818;50.860;4.648;2023-10-08T11:33:46;8.85;;;3.03;;
9559;SDS011;4818;50.860;4.648;2023-10-08T11:36:23;9.00;;;3.30;;
9559;SDS011;4818;50.860;4.648;2023-10-08T11:39:12;9.20;;;3.35;;
9559;SDS011;4818;50.860;4.648;2023-10-08T11:42:02;11.88;;;2.80;;
9559;SDS011;4818;50.860;4.648;2023-10-08T11:44:30;10.55;;;3.10;;
9559;SDS011;4818;50.860;4.648;2023-10-08T11:46:56;6.75;;;2.67;;
9559;SDS011;4818;50.860;4.648;2023-10-08T11:49:30;6.55;;;2.90;;
9559;SDS011;4818;50.860;4.648;2023-10-08T11:52:01;9.00;;;3.22;;
9559;SDS011;4818;50.860;4.648;2023-10-08T11:54:28;10.90;;;3.25;;
9559;SDS011;4818;50.860;4.648;2023-10-08T11:56:58;10.32;;;2.97;;
9559;SDS011;4818;50.860;4.648;2023-10-08T11:59:26;12.93;;;3.40;;
9559;SDS011;4818;50.860;4.648;2023-10-08T12:01:52;6.70;;;2.35;;
9559;SDS011;4818;50.860;4.648;2023-10-08T12:04:21;14.23;;;2.72;;
9559;SDS011;4818;50.860;4.648;2023-10-08T12:06:48;12.27;;;3.30;;
9559;SDS011;4818;50.860;4.648;2023-10-08T12:09:17;10.52;;;2.85;;
9559;SDS011;4818;50.860;4.648;2023-10-08T12:14:13;9.95;;;3.10;;
9559;SDS011;4818;50.860;4.648;2023-10-08T12:16:40;11.07;;;2.88;;
9559;SDS011;4818;50.860;4.648;2023-10-08T12:19:07;9.38;;;2.78;;
9559;SDS011;4818;50.860;4.648;2023-10-08T12:21:42;10.43;;;3.10;;
9559;SDS011;4818;50.860;4.648;2023-10-08T12:24:11;7.75;;;2.53;;
9559;SDS011;4818;50.860;4.648;2023-10-08T12:26:40;8.52;;;2.30;;
9559;SDS011;4818;50.860;4.648;2023-10-08T12:29:14;7.47;;;2.92;;
9559;SDS011;4818;50.860;4.648;2023-10-08T12:31:42;8.32;;;2.47;;
9559;SDS011;4818;50.860;4.648;2023-10-08T12:34:13;6.68;;;2.40;;
9559;SDS011;4818;50.860;4.648;2023-10-08T12:36:39;7.32;;;2.80;;
9559;SDS011;4818;50.860;4.648;2023-10-08T12:39:07;9.65;;;3.42;;
9559;SDS011;4818;50.860;4.648;2023-10-08T12:41:43;8.82;;;2.90;;
9559;SDS011;4818;50.860;4.648;2023-10-08T12:44:10;8.52;;;2.63;;
9559;SDS011;4818;50.860;4.648;2023-10-08T12:46:36;8.05;;;2.60;;
9559;SDS011;4818;50.860;4.648;2023-10-08T12:49:02;13.05;;;3.88;;
9559;SDS011;4818;50.860;4.648;2023-10-08T12:51:29;10.00;;;3.15;;
9559;SDS011;4818;50.860;4.648;2023-10-08T12:53:59;11.48;;;3.03;;
9559;SDS011;4818;50.860;4.648;2023-10-08T12:56:32;13.48;;;2.85;;
9559;SDS011;4818;50.860;4.648;2023-10-08T12:59:03;10.23;;;4.18;;
9559;SDS011;4818;50.860;4.648;2023-10-08T13:01:35;7.28;;;2.70;;
9559;SDS011;4818;50.860;4.648;2023-10-08T13:04:06;6.45;;;2.90;;
9559;SDS011;4818;50.860;4.648;2023-10-08T13:06:33;9.50;;;2.92;;
9559;SDS011;4818;50.860;4.648;2023-10-08T13:09:07;6.85;;;3.30;;
9559;SDS011;4818;50.860;4.648;2023-10-08T13:11:39;8.73;;;3.58;;
9559;SDS011;4818;50.860;4.648;2023-10-08T13:14:08;9.50;;;3.33;;
9559;SDS011;4818;50.860;4.648;2023-10-08T13:16:37;11.45;;;3.15;;
9559;SDS011;4818;50.860;4.648;2023-10-08T13:19:06;10.40;;;3.42;;
9559;SDS011;4818;50.860;4.648;2023-10-08T13:21:34;7.72;;;3.05;;
9559;SDS011;4818;50.860;4.648;2023-10-08T13:24:02;9.90;;;3.40;;
9559;SDS011;4818;50.860;4.648;2023-10-08T13:26:30;7.03;;;3.65;;
9559;SDS011;4818;50.860;4.648;2023-10-08T13:28:57;12.52;;;3.55;;
9559;SDS011;4818;50.860;4.648;2023-10-08T13:31:24;9.05;;;3.30;;
9559;SDS011;4818;50.860;4.648;2023-10-08T13:33:50;7.95;;;3.10;;
9559;SDS011;4818;50.860;4.648;2023-10-08T13:36:17;11.80;;;3.60;;
9559;SDS011;4818;50.860;4.648;2023-10-08T13:38:47;9.43;;;3.75;;
9559;SDS011;4818;50.860;4.648;2023-10-08T13:41:14;6.35;;;2.88;;
9559;SDS011;4818;50.860;4.648;2023-10-08T13:43:44;9.93;;;3.45;;
9559;SDS011;4818;50.860;4.648;2023-10-08T13:46:14;10.63;;;3.75;;
9559;SDS011;4818;50.860;4.648;2023-10-08T13:48:42;8.50;;;3.50;;
9559;SDS011;4818;50.860;4.648;2023-10-08T13:51:12;8.02;;;2.78;;
9559;SDS011;4818;50.860;4.648;2023-10-08T13:53:49;8.32;;;3.22;;
9559;SDS011;4818;50.860;4.648;2023-10-08T13:56:19;7.00;;;2.80;;
9559;SDS011;4818;50.860;4.648;2023-10-08T13:58:50;8.80;;;3.17;;
9559;SDS011;4818;50.860;4.648;2023-10-08T14:01:21;6.28;;;2.55;;
9559;SDS011;4818;50.860;4.648;2023-10-08T14:03:50;8.30;;;3.38;;
9559;SDS011;4818;50.860;4.648;2023-10-08T14:06:19;6.35;;;3.05;;
9559;SDS011;4818;50.860;4.648;2023-10-08T14:08:47;10.75;;;2.75;;
9559;SDS011;4818;50.860;4.648;2023-10-08T14:11:29;10.38;;;2.67;;
9559;SDS011;4818;50.860;4.648;2023-10-08T14:13:58;6.68;;;2.88;;
9559;SDS011;4818;50.860;4.648;2023-10-08T14:16:35;9.05;;;3.10;;
9559;SDS011;4818;50.860;4.648;2023-10-08T14:19:02;6.78;;;3.40;;
9559;SDS011;4818;50.860;4.648;2023-10-08T14:21:30;9.15;;;3.15;;
9559;SDS011;4818;50.860;4.648;2023-10-08T14:24:02;6.35;;;2.75;;
9559;SDS011;4818;50.860;4.648;2023-10-08T14:26:29;8.35;;;4.32;;
9559;SDS011;4818;50.860;4.648;2023-10-08T14:29:02;6.45;;;3.13;;
9559;SDS011;4818;50.860;4.648;2023-10-08T14:31:42;7.13;;;3.10;;
9559;SDS011;4818;50.860;4.648;2023-10-08T14:34:14;4.75;;;2.47;;
9559;SDS011;4818;50.860;4.648;2023-10-08T14:39:28;8.80;;;3.25;;
9559;SDS011;4818;50.860;4.648;2023-10-08T14:42:16;6.20;;;2.67;;
9559;SDS011;4818;50.860;4.648;2023-10-08T14:45:02;14.23;;;4.28;;
9559;SDS011;4818;50.860;4.648;2023-10-08T14:47:28;7.85;;;2.72;;
9559;SDS011;4818;50.860;4.648;2023-10-08T14:49:54;5.32;;;2.55;;
9559;SDS011;4818;50.860;4.648;2023-10-08T14:52:21;7.35;;;3.10;;
9559;SDS011;4818;50.860;4.648;2023-10-08T14:54:49;6.15;;;2.70;;
9559;SDS011;4818;50.860;4.648;2023-10-08T14:57:16;6.32;;;2.90;;
9559;SDS011;4818;50.860;4.648;2023-10-08T14:59:43;9.48;;;3.75;;
9559;SDS011;4818;50.860;4.648;2023-10-08T15:02:10;5.00;;;2.65;;
9559;SDS011;4818;50.860;4.648;2023-10-08T15:04:36;7.53;;;2.80;;
9559;SDS011;4818;50.860;4.648;2023-10-08T15:07:07;9.38;;;2.88;;
9559;SDS011;4818;50.860;4.648;2023-10-08T15:09:36;10.75;;;3.50;;
9559;SDS011;4818;50.860;4.648;2023-10-08T15:12:02;8.57;;;3.20;;
9559;SDS011;4818;50.860;4.648;2023-10-08T15:14:29;5.50;;;3.05;;
9559;SDS011;4818;50.860;4.648;2023-10-08T15:16:56;6.07;;;2.58;;
9559;SDS011;4818;50.860;4.648;2023-10-08T15:19:22;10.45;;;3.75;;
9559;SDS011;4818;50.860;4.648;2023-10-08T15:21:52;6.68;;;3.17;;
9559;SDS011;4818;50.860;4.648;2023-10-08T15:24:20;4.70;;;2.80;;
9559;SDS011;4818;50.860;4.648;2023-10-08T15:26:47;8.40;;;3.22;;
9559;SDS011;4818;50.860;4.648;2023-10-08T15:29:14;8.43;;;3.28;;
9559;SDS011;4818;50.860;4.648;2023-10-08T15:31:40;8.70;;;3.22;;
9559;SDS011;4818;50.860;4.648;2023-10-08T15:34:07;8.27;;;2.90;;
9559;SDS011;4818;50.860;4.648;2023-10-08T15:36:34;10.85;;;3.70;;
9559;SDS011;4818;50.860;4.648;2023-10-08T15:39:00;7.78;;;3.55;;
9559;SDS011;4818;50.860;4.648;2023-10-08T15:41:30;7.15;;;2.53;;
9559;SDS011;4818;50.860;4.648;2023-10-08T15:43:56;6.25;;;2.80;;
9559;SDS011;4818;50.860;4.648;2023-10-08T15:46:25;10.35;;;3.55;;
9559;SDS011;4818;50.860;4.648;2023-10-08T15:48:53;7.25;;;2.60;;
9559;SDS011;4818;50.860;4.648;2023-10-08T15:51:20;7.78;;;3.00;;
9559;SDS011;4818;50.860;4.648;2023-10-08T15:53:52;10.82;;;3.67;;
9559;SDS011;4818;50.860;4.648;2023-10-08T15:56:22;11.18;;;3.85;;
9559;SDS011;4818;50.860;4.648;2023-10-08T15:58:52;6.70;;;2.78;;
9559;SDS011;4818;50.860;4.648;2023-10-08T16:01:18;5.25;;;2.67;;
9559;SDS011;4818;50.860;4.648;2023-10-08T16:03:45;9.05;;;2.53;;
9559;SDS011;4818;50.860;4.648;2023-10-08T16:06:11;5.00;;;2.10;;
9559;SDS011;4818;50.860;4.648;2023-10-08T16:08:38;10.27;;;3.15;;
9559;SDS011;4818;50.860;4.648;2023-10-08T16:11:04;7.85;;;2.80;;
9559;SDS011;4818;50.860;4.648;2023-10-08T16:13:30;6.03;;;2.97;;
9559;SDS011;4818;50.860;4.648;2023-10-08T16:15:57;7.22;;;2.45;;